TimeCDT,TemperatureF,Dew PointF,Humidity,Sea Level PressureIn,VisibilityMPH,Wind Direction,Wind SpeedMPH,Gust SpeedMPH,PrecipitationIn,Events,Conditions,WindDirDegrees,DateUTC
12:15 AM,12.2,6.8,79,30.30,10.0,Calm,Calm,-,N/A,,Clear,0,2013-03-27 05:15:00
12:35 AM,12.2,8.6,85,30.30,10.0,Calm,Calm,-,N/A,,Clear,0,2013-03-27 05:35:00
12:55 AM,8.6,6.8,92,30.30,10.0,Calm,Calm,-,N/A,,Clear,0,2013-03-27 05:55:00
1:15 AM,8.6,6.8,92,30.30,8.0,Calm,Calm,-,N/A,,Clear,0,2013-03-27 06:15:00
1:35 AM,8.6,6.8,92,30.30,5.0,Calm,Calm,-,N/A,,Clear,0,2013-03-27 06:35:00
1:55 AM,8.6,6.8,92,30.30,6.0,Calm,Calm,-,N/A,,Clear,0,2013-03-27 06:55:00
2:15 AM,8.6,5.0,85,30.30,10.0,Calm,Calm,-,N/A,,Clear,0,2013-03-27 07:15:00
2:35 AM,8.6,3.2,79,30.30,10.0,Calm,Calm,-,N/A,,Clear,0,2013-03-27 07:35:00
2:55 AM,6.8,3.2,85,30.30,10.0,Calm,Calm,-,N/A,,Clear,0,2013-03-27 07:55:00
3:15 AM,5.0,3.2,92,30.30,10.0,Calm,Calm,-,N/A,,Clear,0,2013-03-27 08:15:00
3:35 AM,6.8,1.4,79,30.30,10.0,Calm,Calm,-,N/A,,Clear,0,2013-03-27 08:35:00
3:55 AM,5.0,-0.4,78,30.30,10.0,Calm,Calm,-,N/A,,Clear,0,2013-03-27 08:55:00
4:15 AM,3.2,1.4,92,30.29,10.0,Calm,Calm,-,N/A,,Clear,0,2013-03-27 09:15:00
4:35 AM,6.8,3.2,85,30.29,10.0,ENE,4.6,-,N/A,,Clear,70,2013-03-27 09:35:00
4:55 AM,5.0,-0.4,78,30.29,10.0,ENE,5.8,-,N/A,,Clear,70,2013-03-27 09:55:00
5:15 AM,3.2,-2.2,78,30.29,10.0,ENE,3.5,-,N/A,,Clear,60,2013-03-27 10:15:00
5:35 AM,1.4,-0.4,92,30.29,10.0,Calm,Calm,-,N/A,,Clear,0,2013-03-27 10:35:00
5:55 AM,6.8,3.2,85,30.29,10.0,NE,3.5,-,N/A,,Clear,50,2013-03-27 10:55:00
6:15 AM,5.0,1.4,85,30.29,10.0,NE,3.5,-,N/A,,Clear,50,2013-03-27 11:15:00
6:35 AM,6.8,1.4,79,30.29,10.0,ENE,4.6,-,N/A,,Clear,60,2013-03-27 11:35:00
6:55 AM,5.0,3.2,92,30.30,10.0,ENE,3.5,-,N/A,,Clear,70,2013-03-27 11:55:00
7:15 AM,5.0,3.2,92,30.30,10.0,ENE,4.6,-,N/A,,Clear,60,2013-03-27 12:15:00
7:35 AM,3.2,1.4,92,30.31,9.0,Calm,Calm,-,N/A,,Clear,0,2013-03-27 12:35:00
7:55 AM,6.8,5.0,92,30.31,3.0,Calm,Calm,-,N/A,,Clear,0,2013-03-27 12:55:00
8:15 AM,8.6,6.8,92,30.31,3.0,Calm,Calm,-,N/A,,Clear,0,2013-03-27 13:15:00
8:35 AM,8.6,6.8,92,30.31,10.0,East,4.6,-,N/A,,Clear,90,2013-03-27 13:35:00
8:55 AM,10.4,10.4,100,30.31,10.0,East,6.9,-,N/A,,Clear,100,2013-03-27 13:55:00
9:15 AM,10.4,8.6,92,30.31,10.0,East,6.9,-,N/A,,Clear,100,2013-03-27 14:15:00
9:35 AM,12.2,10.4,92,30.31,10.0,ESE,6.9,-,N/A,,Clear,110,2013-03-27 14:35:00
9:55 AM,14.0,10.4,86,30.31,10.0,ESE,5.8,-,N/A,,Clear,110,2013-03-27 14:55:00
10:15 AM,12.2,10.4,92,30.31,10.0,ESE,6.9,-,N/A,,Clear,110,2013-03-27 15:15:00
10:35 AM,17.6,14.0,86,30.32,10.0,ESE,6.9,-,N/A,,Clear,120,2013-03-27 15:35:00
10:55 AM,19.4,15.8,86,30.32,10.0,SE,4.6,-,N/A,,Clear,130,2013-03-27 15:55:00
11:15 AM,21.2,15.8,80,30.32,10.0,SE,6.9,-,N/A,,Clear,140,2013-03-27 16:15:00
11:35 AM,21.2,14.0,74,30.32,10.0,SSW,3.5,-,N/A,,Clear,200,2013-03-27 16:35:00
11:55 AM,24.8,15.8,69,30.32,10.0,SSW,3.5,-,N/A,,Clear,200,2013-03-27 16:55:00
12:15 PM,26.6,17.6,69,30.32,10.0,Calm,Calm,-,N/A,,Clear,0,2013-03-27 17:15:00
12:35 PM,26.6,15.8,64,30.32,10.0,Calm,Calm,-,N/A,,Clear,0,2013-03-27 17:35:00
12:55 PM,30.2,19.4,64,30.32,10.0,Calm,Calm,-,N/A,,Clear,0,2013-03-27 17:55:00
1:15 PM,30.2,19.4,64,30.32,10.0,Calm,Calm,-,N/A,,Clear,0,2013-03-27 18:15:00
1:35 PM,32.0,17.6,55,30.32,10.0,South,3.5,-,N/A,,Clear,180,2013-03-27 18:35:00
1:55 PM,35.6,19.4,52,30.32,10.0,Calm,Calm,-,N/A,,Clear,0,2013-03-27 18:55:00
2:15 PM,30.2,15.8,55,30.31,10.0,Calm,Calm,-,0.01,,Clear,0,2013-03-27 19:15:00
2:35 PM,32.0,15.8,51,30.30,10.0,Calm,Calm,-,0.01,,Clear,0,2013-03-27 19:35:00
2:55 PM,33.8,17.6,52,30.30,10.0,Calm,Calm,-,0.01,,Clear,0,2013-03-27 19:55:00
3:15 PM,33.8,15.8,48,30.30,10.0,Calm,Calm,-,N/A,,Clear,0,2013-03-27 20:15:00
3:35 PM,33.8,15.8,48,30.30,10.0,Calm,Calm,-,N/A,,Clear,0,2013-03-27 20:35:00
3:55 PM,33.8,15.8,48,30.29,10.0,Calm,Calm,-,N/A,,Clear,0,2013-03-27 20:55:00
4:15 PM,33.8,15.8,48,30.29,10.0,Calm,Calm,-,N/A,,Clear,0,2013-03-27 21:15:00
4:35 PM,33.8,15.8,48,30.29,10.0,Calm,Calm,-,N/A,,Clear,0,2013-03-27 21:35:00
4:55 PM,35.6,17.6,48,30.29,10.0,Calm,Calm,-,N/A,,Clear,0,2013-03-27 21:55:00
5:15 PM,39.2,17.6,42,30.29,10.0,Calm,Calm,-,N/A,,Clear,0,2013-03-27 22:15:00
5:35 PM,35.6,15.8,44,30.28,10.0,Calm,Calm,-,N/A,,Clear,0,2013-03-27 22:35:00
5:55 PM,33.8,17.6,52,30.28,10.0,Calm,Calm,-,N/A,,Clear,0,2013-03-27 22:55:00
6:15 PM,35.6,17.6,48,30.28,10.0,Calm,Calm,-,N/A,,Clear,0,2013-03-27 23:15:00
6:35 PM,35.6,15.8,44,30.28,10.0,Calm,Calm,-,N/A,,Clear,0,2013-03-27 23:35:00
6:55 PM,33.8,15.8,48,30.28,10.0,Calm,Calm,-,N/A,,Clear,0,2013-03-27 23:55:00
7:15 PM,33.8,15.8,48,30.28,10.0,Calm,Calm,-,N/A,,Clear,0,2013-03-28 00:15:00
7:35 PM,33.8,17.6,52,30.28,10.0,NE,5.8,-,N/A,,Clear,40,2013-03-28 00:35:00
7:55 PM,32.0,15.8,51,30.29,10.0,NE,4.6,-,N/A,,Clear,50,2013-03-28 00:55:00
8:15 PM,28.4,15.8,59,30.28,10.0,ENE,4.6,-,N/A,,Clear,60,2013-03-28 01:15:00
8:35 PM,28.4,15.8,59,30.28,10.0,ENE,4.6,-,N/A,,Clear,60,2013-03-28 01:35:00
8:55 PM,26.6,15.8,64,30.28,10.0,ENE,3.5,-,N/A,,Clear,60,2013-03-28 01:55:00
9:15 PM,24.8,14.0,64,30.29,10.0,ENE,3.5,-,N/A,,Clear,70,2013-03-28 02:15:00
9:35 PM,23.0,12.2,63,30.29,10.0,Calm,Calm,-,N/A,,Clear,0,2013-03-28 02:35:00
9:55 PM,21.2,12.2,68,30.29,10.0,East,3.5,-,N/A,,Clear,100,2013-03-28 02:55:00
10:15 PM,21.2,12.2,68,30.29,10.0,Calm,Calm,-,N/A,,Clear,0,2013-03-28 03:15:00
10:35 PM,21.2,12.2,68,30.29,10.0,Calm,Calm,-,N/A,,Clear,0,2013-03-28 03:35:00
10:55 PM,21.2,12.2,68,30.29,10.0,Calm,Calm,-,N/A,,Clear,0,2013-03-28 03:55:00
11:15 PM,19.4,12.2,74,30.29,10.0,Calm,Calm,-,N/A,,Clear,0,2013-03-28 04:15:00
11:35 PM,19.4,12.2,74,30.29,10.0,East,3.5,-,N/A,,Clear,90,2013-03-28 04:35:00
11:55 PM,19.4,10.4,68,30.29,10.0,East,3.5,-,N/A,,Clear,90,2013-03-28 04:55:00